Time;durP1;ratioP1;P1;durP2;ratioP2;P2;SDS_P1;SDS_P2;PMS_P1;PMS_P2;Temp;Humidity;BMP_temperature;BMP_pressure;BME280_temperature;BME280_humidity;BME280_pressure;Samples;Min_cycle;Max_cycle;Signal;HPM_P1;HPM_P2
2023/09/19 00:00:38;;;;;;;2.38;1.30;;;18.30;99.90;;;;;;5038137;28;20243;-70
2023/09/19 00:03:06;;;;;;;1.95;1.30;;;18.30;99.90;;;;;;5054827;28;20194;-69
2023/09/19 00:05:34;;;;;;;3.78;1.55;;;18.30;99.90;;;;;;5052694;28;20239;-69
2023/09/19 00:08:04;;;;;;;2.70;1.25;;;18.20;99.90;;;;;;5053658;28;20242;-67
2023/09/19 00:10:36;;;;;;;2.45;1.23;;;18.20;99.90;;;;;;5053681;28;20846;-69
2023/09/19 00:13:12;;;;;;;3.95;1.42;;;18.20;99.90;;;;;;5054324;28;20196;-71
2023/09/19 00:15:48;;;;;;;2.35;1.30;;;18.20;99.90;;;;;;5054664;28;20200;-70
2023/09/19 00:18:15;;;;;;;3.10;1.27;;;18.20;99.90;;;;;;5054814;28;20280;-71
2023/09/19 00:20:49;;;;;;;1.85;1.13;;;18.10;99.90;;;;;;5054383;28;20197;-69
2023/09/19 00:23:19;;;;;;;3.10;1.42;;;18.10;99.90;;;;;;5054393;28;20173;-69
2023/09/19 00:25:45;;;;;;;3.13;1.35;;;18.10;99.90;;;;;;5056887;28;20225;-69
2023/09/19 00:28:11;;;;;;;1.92;1.23;;;18.10;99.90;;;;;;5054309;28;20205;-68
2023/09/19 00:30:39;;;;;;;3.53;1.40;;;18.10;99.90;;;;;;5053132;28;20246;-64
2023/09/19 00:33:07;;;;;;;2.72;1.30;;;18.10;99.90;;;;;;5054576;28;20188;-67
2023/09/19 00:35:33;;;;;;;3.75;1.20;;;18.10;99.90;;;;;;5055705;28;20292;-69
2023/09/19 00:37:59;;;;;;;3.10;1.10;;;18.10;99.90;;;;;;5056275;28;20213;-67
2023/09/19 00:40:26;;;;;;;2.53;1.20;;;18.10;99.90;;;;;;5052867;28;20204;-67
2023/09/19 00:42:59;;;;;;;4.97;1.20;;;18.10;99.90;;;;;;5037295;28;20169;-66
2023/09/19 00:45:24;;;;;;;3.60;1.23;;;18.00;99.90;;;;;;5052859;28;20208;-69
2023/09/19 00:47:51;;;;;;;2.10;1.10;;;18.10;99.90;;;;;;5042641;28;20216;-66
2023/09/19 00:50:19;;;;;;;1.48;1.00;;;18.10;99.90;;;;;;5053311;28;20205;-69
2023/09/19 00:52:50;;;;;;;1.55;1.00;;;18.10;99.90;;;;;;5052879;28;20185;-71
2023/09/19 00:55:20;;;;;;;2.20;1.13;;;18.00;99.90;;;;;;5053541;28;20228;-70
2023/09/19 00:57:49;;;;;;;1.85;1.15;;;18.00;99.90;;;;;;5053387;28;20205;-70
2023/09/19 01:00:19;;;;;;;1.90;1.15;;;18.00;99.90;;;;;;5055351;28;20169;-70
2023/09/19 01:02:46;;;;;;;1.67;1.10;;;18.00;99.90;;;;;;5053483;28;20186;-68
2023/09/19 01:05:15;;;;;;;2.45;1.27;;;18.00;99.90;;;;;;5037892;28;20165;-69
2023/09/19 01:07:41;;;;;;;2.70;1.30;;;18.00;99.90;;;;;;5053365;28;20232;-69
2023/09/19 01:10:10;;;;;;;2.20;1.30;;;18.00;99.90;;;;;;5052481;28;20173;-69
2023/09/19 01:12:51;;;;;;;2.42;1.17;;;18.00;99.90;;;;;;5053385;28;20188;-66
2023/09/19 01:15:33;;;;;;;2.53;1.50;;;18.00;99.90;;;;;;5052593;28;20351;-69
2023/09/19 01:18:23;;;;;;;3.30;1.20;;;18.00;99.90;;;;;;5044472;28;20165;-69
2023/09/19 01:20:53;;;;;;;2.45;1.00;;;18.00;99.90;;;;;;5052363;28;20216;-68
2023/09/19 01:23:50;;;;;;;4.18;1.30;;;18.10;99.90;;;;;;5054554;28;20229;-68
2023/09/19 01:26:30;;;;;;;3.22;1.15;;;18.10;99.90;;;;;;5055113;28;20204;-70
2023/09/19 01:29:01;;;;;;;1.35;0.85;;;18.10;99.90;;;;;;5051771;28;20260;-69
2023/09/19 01:31:31;;;;;;;2.28;0.98;;;18.10;99.90;;;;;;5051952;28;20200;-66
2023/09/19 01:34:00;;;;;;;3.42;1.20;;;18.20;99.90;;;;;;5052709;28;20181;-69
2023/09/19 01:36:35;;;;;;;3.60;1.00;;;18.20;99.90;;;;;;5052425;28;20201;-68
2023/09/19 01:39:10;;;;;;;2.15;1.20;;;18.20;99.90;;;;;;5052197;28;20189;-68
2023/09/19 01:42:16;;;;;;;3.75;1.40;;;18.20;99.90;;;;;;5050531;28;20192;-69
2023/09/19 01:44:59;;;;;;;2.78;1.00;;;18.30;99.90;;;;;;5036037;28;20493;-70
2023/09/19 01:47:35;;;;;;;1.30;0.90;;;18.20;99.90;;;;;;5043386;28;20224;-70
2023/09/19 01:50:14;;;;;;;2.75;1.10;;;18.20;99.90;;;;;;5051296;28;20201;-70
2023/09/19 01:52:48;;;;;;;1.90;0.98;;;18.20;99.90;;;;;;5051903;28;20177;-69
2023/09/19 01:55:21;;;;;;;2.35;1.20;;;18.20;99.90;;;;;;5051996;28;20188;-70
2023/09/19 01:57:57;;;;;;;3.55;1.30;;;18.20;99.90;;;;;;5051597;28;20188;-70
2023/09/19 02:00:25;;;;;;;3.28;1.20;;;18.20;99.90;;;;;;5052229;28;20172;-69
2023/09/19 02:02:52;;;;;;;4.28;1.08;;;18.20;99.90;;;;;;5050685;28;20242;-70
2023/09/19 02:05:29;;;;;;;2.28;1.00;;;18.20;99.90;;;;;;5051759;28;20177;-68
2023/09/19 02:07:58;;;;;;;3.35;1.20;;;18.20;99.90;;;;;;5051712;28;20334;-70
2023/09/19 02:10:28;;;;;;;4.15;1.33;;;18.20;99.90;;;;;;5051329;28;20165;-70
2023/09/19 02:12:54;;;;;;;2.63;1.20;;;18.20;99.90;;;;;;5051806;28;20381;-70
2023/09/19 02:15:23;;;;;;;2.40;1.20;;;18.20;99.90;;;;;;5051522;28;20209;-67
2023/09/19 02:17:56;;;;;;;4.30;1.35;;;18.20;99.90;;;;;;5036432;28;20173;-70
2023/09/19 02:20:26;;;;;;;3.35;1.33;;;18.20;99.90;;;;;;5052059;28;20789;-68
2023/09/19 02:22:52;;;;;;;4.68;1.38;;;18.20;99.90;;;;;;5049959;28;20208;-69
2023/09/19 02:25:18;;;;;;;3.67;1.40;;;18.20;99.90;;;;;;5053303;28;20211;-69
2023/09/19 02:27:44;;;;;;;4.70;1.80;;;18.20;99.90;;;;;;5051881;28;20223;-68
2023/09/19 02:30:15;;;;;;;5.88;1.63;;;18.10;99.90;;;;;;5054962;28;20177;-69
2023/09/19 02:32:44;;;;;;;3.53;1.38;;;18.10;99.90;;;;;;5055148;28;20390;-68
2023/09/19 02:35:10;;;;;;;4.18;1.50;;;18.10;99.90;;;;;;5051981;28;20240;-69
2023/09/19 02:37:36;;;;;;;4.13;1.40;;;18.10;99.90;;;;;;5052557;28;20198;-68
2023/09/19 02:40:02;;;;;;;3.28;1.20;;;18.00;99.90;;;;;;5055107;28;20173;-69
2023/09/19 02:42:28;;;;;;;6.32;1.50;;;18.10;99.90;;;;;;5051440;28;20177;-70
2023/09/19 02:44:53;;;;;;;6.80;1.70;;;18.00;99.90;;;;;;5053014;28;20208;-70
2023/09/19 02:47:19;;;;;;;3.88;1.30;;;18.00;99.90;;;;;;5052276;28;20177;-66
2023/09/19 02:49:45;;;;;;;4.75;1.33;;;18.00;99.90;;;;;;5051378;28;20177;-69
2023/09/19 02:52:11;;;;;;;4.93;1.50;;;17.90;99.90;;;;;;5052221;28;20216;-69
2023/09/19 02:54:37;;;;;;;3.30;1.30;;;17.90;99.90;;;;;;5052956;28;20443;-69
2023/09/19 02:57:06;;;;;;;3.30;1.55;;;17.90;99.90;;;;;;5047665;28;20396;-67
2023/09/19 02:59:36;;;;;;;5.82;1.48;;;17.80;99.90;;;;;;5051429;28;20197;-69
2023/09/19 03:02:02;;;;;;;5.10;1.40;;;17.80;99.90;;;;;;5051202;28;20181;-68
2023/09/19 03:04:33;;;;;;;4.93;1.70;;;17.80;99.90;;;;;;5051914;28;20170;-66
2023/09/19 03:07:01;;;;;;;4.32;1.27;;;17.70;99.90;;;;;;5052441;28;20208;-66
2023/09/19 03:09:27;;;;;;;5.53;1.60;;;17.70;99.90;;;;;;5053069;28;20212;-68
2023/09/19 03:11:55;;;;;;;3.72;1.17;;;17.70;99.90;;;;;;5051097;28;20177;-64
2023/09/19 03:14:21;;;;;;;3.08;1.27;;;17.60;99.90;;;;;;5055634;28;20185;-66
2023/09/19 03:16:48;;;;;;;3.78;1.40;;;17.60;99.90;;;;;;5057096;28;20208;-67
2023/09/19 03:19:16;;;;;;;3.42;1.27;;;17.60;99.90;;;;;;5056428;28;20165;-70
2023/09/19 03:21:42;;;;;;;3.05;1.30;;;17.60;99.90;;;;;;5037755;28;20337;-70
2023/09/19 03:24:08;;;;;;;4.25;1.40;;;17.50;99.90;;;;;;5057958;28;20169;-69
2023/09/19 03:26:33;;;;;;;3.72;1.40;;;17.50;99.90;;;;;;5055601;28;20170;-70
2023/09/19 03:28:59;;;;;;;4.60;1.42;;;17.50;99.90;;;;;;5044258;28;20239;-69
2023/09/19 03:31:25;;;;;;;4.22;1.35;;;17.50;99.90;;;;;;5055991;28;20188;-67
2023/09/19 03:33:50;;;;;;;3.65;1.25;;;17.40;99.90;;;;;;5053741;28;20189;-67
2023/09/19 03:36:18;;;;;;;4.78;1.67;;;17.40;99.90;;;;;;5055044;28;20291;-69
2023/09/19 03:38:46;;;;;;;4.93;1.33;;;17.40;99.90;;;;;;5055401;28;20209;-69
2023/09/19 03:41:17;;;;;;;4.20;1.65;;;17.30;99.90;;;;;;5055960;28;20200;-67
2023/09/19 03:43:45;;;;;;;6.75;1.50;;;17.30;99.90;;;;;;5055431;28;20280;-70
2023/09/19 03:46:12;;;;;;;4.03;1.30;;;17.30;99.90;;;;;;5055767;28;20220;-69
2023/09/19 03:48:38;;;;;;;4.45;1.60;;;17.30;99.90;;;;;;5053248;28;20201;-71
2023/09/19 03:51:06;;;;;;;6.70;1.70;;;17.20;99.90;;;;;;5054974;28;20331;-70
2023/09/19 03:53:32;;;;;;;5.05;1.40;;;17.20;99.90;;;;;;5056019;28;20197;-69
2023/09/19 03:55:57;;;;;;;4.60;1.63;;;17.20;99.90;;;;;;5069706;28;20215;-71
2023/09/19 03:58:28;;;;;;;3.85;1.50;;;17.20;99.90;;;;;;5055468;28;20185;-70
2023/09/19 04:01:00;;;;;;;4.47;1.67;;;17.20;99.90;;;;;;5038807;28;20287;-68
2023/09/19 04:03:34;;;;;;;3.85;1.40;;;17.20;99.90;;;;;;5053609;28;20209;-69
2023/09/19 04:06:01;;;;;;;3.75;1.33;;;17.20;99.90;;;;;;5055951;28;20545;-69
2023/09/19 04:08:27;;;;;;;4.72;1.90;;;17.20;99.90;;;;;;5054421;28;20181;-66
2023/09/19 04:10:53;;;;;;;3.85;1.45;;;17.20;99.90;;;;;;5055292;28;20174;-66
2023/09/19 04:13:21;;;;;;;4.63;1.40;;;17.10;99.90;;;;;;5054821;28;20264;-66
2023/09/19 04:15:47;;;;;;;7.15;1.45;;;17.10;99.90;;;;;;5055320;28;20201;-70
2023/09/19 04:18:12;;;;;;;5.75;1.63;;;17.10;99.90;;;;;;5053483;28;20261;-69
2023/09/19 04:20:38;;;;;;;6.28;1.50;;;17.10;99.90;;;;;;5059328;28;20184;-69
2023/09/19 04:23:05;;;;;;;2.83;1.30;;;17.00;99.90;;;;;;5055498;28;20181;-69
2023/09/19 04:25:31;;;;;;;4.70;1.30;;;17.00;99.90;;;;;;5051378;28;20212;-66
2023/09/19 04:27:59;;;;;;;4.45;1.60;;;17.00;99.90;;;;;;5054196;28;20212;-64
2023/09/19 04:30:25;;;;;;;4.38;1.40;;;17.00;99.90;;;;;;5052907;28;20170;-65
2023/09/19 04:32:53;;;;;;;7.13;1.70;;;16.90;99.90;;;;;;5053942;28;20267;-69
2023/09/19 04:35:19;;;;;;;2.03;1.20;;;16.90;99.90;;;;;;5054446;28;21064;-70
2023/09/19 04:37:44;;;;;;;4.65;1.80;;;16.90;99.90;;;;;;5053717;28;20188;-69
2023/09/19 04:40:19;;;;;;;4.38;1.70;;;16.90;99.90;;;;;;5052814;28;20204;-66
2023/09/19 04:42:46;;;;;;;3.72;1.55;;;16.90;99.90;;;;;;5053939;28;20330;-69
2023/09/19 04:45:11;;;;;;;4.65;1.80;;;16.80;99.90;;;;;;5040362;28;20196;-69
2023/09/19 04:47:43;;;;;;;3.47;1.50;;;16.80;99.90;;;;;;5053471;28;20199;-69
2023/09/19 04:50:13;;;;;;;2.95;1.40;;;16.80;99.90;;;;;;5054616;28;20173;-68
2023/09/19 04:52:44;;;;;;;3.38;1.30;;;16.80;99.90;;;;;;5055336;28;20256;-68
2023/09/19 04:55:19;;;;;;;3.70;1.60;;;16.80;99.90;;;;;;5054753;28;20199;-67
2023/09/19 04:57:53;;;;;;;4.80;1.80;;;16.80;99.90;;;;;;5035282;28;20181;-68
2023/09/19 05:00:23;;;;;;;4.85;1.55;;;16.80;99.90;;;;;;5057040;28;20215;-67
2023/09/19 05:02:56;;;;;;;3.92;1.50;;;16.80;99.90;;;;;;5053403;28;20177;-68
2023/09/19 05:05:22;;;;;;;4.28;1.30;;;16.80;99.90;;;;;;5055516;28;20196;-69
2023/09/19 05:07:48;;;;;;;5.40;2.00;;;16.70;99.90;;;;;;5054192;28;20212;-69
2023/09/19 05:10:18;;;;;;;6.22;1.55;;;16.70;99.90;;;;;;5039851;28;20177;-70
2023/09/19 05:12:48;;;;;;;4.07;1.48;;;16.80;99.90;;;;;;5055269;28;20178;-69
2023/09/19 05:15:17;;;;;;;4.13;1.50;;;16.70;99.90;;;;;;5040470;28;20193;-71
2023/09/19 05:17:51;;;;;;;4.18;1.35;;;16.70;99.90;;;;;;5038822;28;20184;-65
2023/09/19 05:20:37;;;;;;;5.45;1.63;;;16.70;99.90;;;;;;5051762;28;20177;-70
2023/09/19 05:23:07;;;;;;;3.42;1.63;;;16.70;99.90;;;;;;5053563;28;20207;-69
2023/09/19 05:25:39;;;;;;;4.40;1.50;;;16.70;99.90;;;;;;5050871;28;20353;-69
2023/09/19 05:28:11;;;;;;;4.38;1.73;;;16.70;99.90;;;;;;5038204;28;20187;-69
2023/09/19 05:30:40;;;;;;;4.70;1.88;;;16.60;99.90;;;;;;5054782;28;20284;-69
2023/09/19 05:33:08;;;;;;;4.40;1.40;;;16.60;99.90;;;;;;5071327;28;20284;-69
2023/09/19 05:35:39;;;;;;;4.53;1.40;;;16.60;99.90;;;;;;5053654;28;20202;-66
2023/09/19 05:38:08;;;;;;;5.47;1.80;;;16.60;99.90;;;;;;5049820;28;20224;-66
2023/09/19 05:40:34;;;;;;;5.50;1.60;;;16.60;99.90;;;;;;5054381;28;20187;-66
2023/09/19 05:43:00;;;;;;;4.65;2.03;;;16.60;99.90;;;;;;5036450;28;20177;-65
2023/09/19 05:45:27;;;;;;;3.47;1.73;;;16.60;99.90;;;;;;5053071;28;20199;-65
2023/09/19 05:48:01;;;;;;;4.43;1.63;;;16.60;99.90;;;;;;5043378;28;20197;-64
2023/09/19 05:50:26;;;;;;;4.40;2.03;;;16.50;99.90;;;;;;5050148;28;20178;-65
2023/09/19 05:52:53;;;;;;;4.45;1.92;;;16.50;99.90;;;;;;5054276;28;20216;-65
2023/09/19 05:55:24;;;;;;;5.18;1.85;;;16.50;99.90;;;;;;5052477;28;20272;-65
2023/09/19 05:57:56;;;;;;;5.63;1.75;;;16.50;99.90;;;;;;5053946;28;20188;-65
2023/09/19 06:00:23;;;;;;;6.65;2.47;;;16.50;99.90;;;;;;5053801;28;20200;-65
2023/09/19 06:03:00;;;;;;;4.97;1.88;;;16.60;99.90;;;;;;5037107;28;20169;-65
2023/09/19 06:05:27;;;;;;;5.20;1.48;;;16.60;99.90;;;;;;5069605;28;20177;-65
2023/09/19 06:07:55;;;;;;;3.97;1.50;;;16.60;99.90;;;;;;5062083;28;20200;-65
2023/09/19 06:10:23;;;;;;;3.97;1.60;;;16.60;99.90;;;;;;5051256;28;20196;-65
2023/09/19 06:12:51;;;;;;;5.40;1.50;;;16.60;99.90;;;;;;5069314;28;20169;-67
2023/09/19 06:15:19;;;;;;;4.85;1.60;;;16.60;99.90;;;;;;5050368;28;20177;-65
2023/09/19 06:17:50;;;;;;;4.60;1.75;;;16.60;99.90;;;;;;5063306;28;20212;-66
2023/09/19 06:20:19;;;;;;;3.35;1.48;;;16.70;99.90;;;;;;5035790;28;20204;-67
2023/09/19 06:22:45;;;;;;;4.82;1.70;;;16.70;99.90;;;;;;5053794;28;20255;-67
2023/09/19 06:25:22;;;;;;;4.85;1.85;;;16.70;99.90;;;;;;5052428;28;20219;-65
2023/09/19 06:27:55;;;;;;;5.50;1.60;;;16.70;99.90;;;;;;5053397;28;20193;-67
2023/09/19 06:30:25;;;;;;;5.30;1.63;;;16.80;99.90;;;;;;5070709;28;20177;-65
2023/09/19 06:32:59;;;;;;;5.32;1.80;;;16.80;99.90;;;;;;5047292;28;20196;-66
2023/09/19 06:35:30;;;;;;;7.95;1.52;;;16.80;99.90;;;;;;5052737;28;20233;-65
2023/09/19 06:37:57;;;;;;;4.93;1.80;;;16.80;99.90;;;;;;5053448;28;20253;-66
2023/09/19 06:40:25;;;;;;;5.55;1.70;;;16.80;99.90;;;;;;5040749;28;20268;-66
2023/09/19 06:42:57;;;;;;;5.78;1.88;;;16.80;99.90;;;;;;5070934;28;20177;-66
2023/09/19 06:45:26;;;;;;;3.47;1.77;;;16.90;99.90;;;;;;5054041;28;20184;-66
2023/09/19 06:47:55;;;;;;;3.72;1.50;;;16.90;99.90;;;;;;5039697;28;20173;-66
2023/09/19 06:50:25;;;;;;;5.15;1.90;;;16.90;99.90;;;;;;5062374;28;20173;-65
2023/09/19 06:52:55;;;;;;;3.28;1.80;;;16.90;99.90;;;;;;5041211;28;20173;-66
2023/09/19 06:55:23;;;;;;;5.35;1.83;;;17.00;99.90;;;;;;5039822;28;20185;-65
2023/09/19 06:57:49;;;;;;;3.63;1.42;;;17.00;99.90;;;;;;5057668;28;20183;-65
2023/09/19 07:00:19;;;;;;;4.80;2.40;;;17.00;99.90;;;;;;5055749;28;20182;-64
2023/09/19 07:02:56;;;;;;;5.30;2.10;;;17.00;99.90;;;;;;5056892;28;20201;-66
2023/09/19 07:05:22;;;;;;;6.38;1.98;;;17.00;99.90;;;;;;5056041;28;20196;-66
2023/09/19 07:07:49;;;;;;;5.53;1.73;;;17.10;99.90;;;;;;5056687;28;20179;-66
2023/09/19 07:10:15;;;;;;;6.25;1.63;;;17.10;99.90;;;;;;5038726;28;20479;-65
2023/09/19 07:12:42;;;;;;;6.03;2.00;;;17.20;99.90;;;;;;5056826;28;20201;-64
2023/09/19 07:15:08;;;;;;;4.20;1.50;;;17.20;99.90;;;;;;5056393;28;20242;-65
2023/09/19 07:17:33;;;;;;;3.67;1.50;;;17.20;99.90;;;;;;5064453;28;20192;-65
2023/09/19 07:19:59;;;;;;;4.07;1.83;;;17.30;99.90;;;;;;5040309;28;20193;-65
2023/09/19 07:22:27;;;;;;;4.78;1.80;;;17.30;99.90;;;;;;5056955;28;20204;-65
2023/09/19 07:24:57;;;;;;;4.60;1.65;;;17.30;99.90;;;;;;5054802;28;20311;-65
2023/09/19 07:27:23;;;;;;;3.92;1.60;;;17.40;99.90;;;;;;5064361;28;20178;-65
2023/09/19 07:29:48;;;;;;;8.43;2.08;;;17.40;99.90;;;;;;5042280;28;20192;-65
2023/09/19 07:32:17;;;;;;;5.18;1.90;;;17.50;99.90;;;;;;5058292;28;20189;-65
2023/09/19 07:34:45;;;;;;;5.55;2.17;;;17.50;99.90;;;;;;5057185;28;20181;-65
2023/09/19 07:37:11;;;;;;;6.35;1.83;;;17.50;99.90;;;;;;5057055;28;20396;-66
2023/09/19 07:39:36;;;;;;;5.95;1.83;;;17.60;99.90;;;;;;5056506;28;20192;-65
2023/09/19 07:42:02;;;;;;;5.03;1.90;;;17.60;99.90;;;;;;5039104;28;20197;-65
2023/09/19 07:44:31;;;;;;;5.55;2.10;;;17.60;99.90;;;;;;5046449;28;20204;-66
2023/09/19 07:46:57;;;;;;;3.65;1.77;;;17.70;99.90;;;;;;5055222;28;20242;-65
2023/09/19 07:49:22;;;;;;;4.00;1.70;;;17.70;99.90;;;;;;5038450;28;20185;-65
2023/09/19 07:51:48;;;;;;;5.10;1.58;;;17.70;99.90;;;;;;5056433;28;20205;-65
2023/09/19 07:54:16;;;;;;;4.88;1.90;;;17.80;99.90;;;;;;5053621;28;20202;-66
2023/09/19 07:56:42;;;;;;;6.05;1.80;;;17.90;99.90;;;;;;5025497;28;20193;-65
2023/09/19 07:59:11;;;;;;;8.77;2.10;;;17.90;99.90;;;;;;5040884;28;20181;-65
2023/09/19 08:01:37;;;;;;;7.88;2.35;;;17.90;99.90;;;;;;5037926;28;20181;-65
2023/09/19 08:04:03;;;;;;;4.15;1.90;;;18.00;99.90;;;;;;5054490;28;20234;-66
2023/09/19 08:06:31;;;;;;;6.60;1.75;;;18.10;99.90;;;;;;5054565;28;20268;-66
2023/09/19 08:08:57;;;;;;;4.70;1.60;;;18.20;99.90;;;;;;5054425;28;20251;-66
2023/09/19 08:11:24;;;;;;;5.38;2.10;;;18.20;99.90;;;;;;5073837;28;20169;-66
2023/09/19 08:13:50;;;;;;;9.95;2.70;;;18.30;99.90;;;;;;5040187;28;20196;-66
2023/09/19 08:16:22;;;;;;;5.90;2.38;;;18.30;99.90;;;;;;5045833;28;20235;-66
2023/09/19 08:18:48;;;;;;;6.68;1.90;;;18.30;99.90;;;;;;5064635;28;20212;-65
2023/09/19 08:21:16;;;;;;;7.43;1.92;;;18.30;99.90;;;;;;5055445;28;20185;-65
2023/09/19 08:23:41;;;;;;;7.35;2.17;;;18.40;99.90;;;;;;5054673;28;20231;-65
2023/09/19 08:26:08;;;;;;;6.43;1.85;;;18.40;99.90;;;;;;5055972;28;20200;-65
2023/09/19 08:28:37;;;;;;;8.68;2.15;;;18.50;99.90;;;;;;5071785;28;20185;-65
2023/09/19 08:31:07;;;;;;;8.25;2.28;;;18.50;99.90;;;;;;5052393;28;20296;-65
2023/09/19 08:33:36;;;;;;;6.80;1.88;;;18.50;99.90;;;;;;5034632;28;20181;-65
2023/09/19 08:36:04;;;;;;;6.30;2.20;;;18.60;99.90;;;;;;5062370;28;20229;-65
2023/09/19 08:38:38;;;;;;;7.10;2.13;;;18.60;99.90;;;;;;5052102;28;20204;-65
2023/09/19 08:41:13;;;;;;;6.93;1.80;;;18.70;99.90;;;;;;5034553;28;20176;-66
2023/09/19 08:43:39;;;;;;;7.97;2.45;;;18.70;99.90;;;;;;5039757;28;20213;-65
2023/09/19 08:46:10;;;;;;;3.85;1.73;;;18.70;99.90;;;;;;5043811;28;20201;-65
2023/09/19 08:48:42;;;;;;;6.88;2.03;;;18.80;99.90;;;;;;5069426;28;20183;-65
2023/09/19 08:51:17;;;;;;;12.32;5.82;;;18.90;99.90;;;;;;5053830;28;20193;-64
2023/09/19 08:54:11;;;;;;;9.43;3.53;;;18.90;99.90;;;;;;5043114;28;20195;-66
2023/09/19 08:56:39;;;;;;;6.88;2.70;;;19.00;99.90;;;;;;5054302;28;20194;-65
2023/09/19 08:59:07;;;;;;;6.47;1.98;;;19.10;99.90;;;;;;5036874;28;20189;-66
2023/09/19 09:01:35;;;;;;;7.05;2.40;;;19.10;99.90;;;;;;5051346;28;20182;-65
2023/09/19 09:04:04;;;;;;;5.05;1.83;;;19.20;99.90;;;;;;5032901;28;20236;-65
2023/09/19 09:06:34;;;;;;;5.55;1.88;;;19.20;99.90;;;;;;5052805;28;20197;-66
2023/09/19 09:09:00;;;;;;;4.93;1.80;;;19.20;99.90;;;;;;5053401;28;20346;-66
2023/09/19 09:11:27;;;;;;;7.03;1.83;;;19.30;99.90;;;;;;5054271;28;20174;-66
2023/09/19 09:13:57;;;;;;;5.82;1.92;;;19.40;99.90;;;;;;5053819;28;20284;-66
2023/09/19 09:16:25;;;;;;;6.38;2.13;;;19.40;99.90;;;;;;5071649;28;20236;-66
2023/09/19 09:18:52;;;;;;;6.82;1.73;;;19.50;99.90;;;;;;5046407;28;20185;-66
2023/09/19 09:21:19;;;;;;;6.57;1.88;;;19.50;99.90;;;;;;5060401;28;20176;-66
2023/09/19 09:23:45;;;;;;;5.85;2.00;;;19.50;99.90;;;;;;5056237;28;20223;-65
2023/09/19 09:26:11;;;;;;;5.68;1.80;;;19.60;99.90;;;;;;5051272;28;20200;-66
2023/09/19 09:28:45;;;;;;;4.80;1.88;;;19.60;99.90;;;;;;5037101;28;20173;-66
2023/09/19 09:31:26;;;;;;;4.88;1.60;;;19.70;99.90;;;;;;5056219;28;20184;-65
2023/09/19 09:33:55;;;;;;;4.70;1.65;;;19.80;99.90;;;;;;5053783;28;20508;-65
2023/09/19 09:36:41;;;;;;;5.43;1.98;;;19.80;99.90;;;;;;5053559;28;20201;-65
2023/09/19 09:39:18;;;;;;;5.28;2.00;;;19.90;99.90;;;;;;5034787;28;20197;-65
2023/09/19 09:41:45;;;;;;;5.22;1.85;;;20.00;99.90;;;;;;5052714;28;20276;-65
2023/09/19 09:44:17;;;;;;;4.18;1.75;;;20.20;99.90;;;;;;5071237;28;20173;-66
2023/09/19 09:52:05;;;;;;;2.70;1.33;;;20.80;99.90;;;;;;5055285;28;20169;-66
2023/09/19 09:54:37;;;;;;;3.55;1.45;;;21.00;99.90;;;;;;5058235;28;20262;-66
2023/09/19 09:57:14;;;;;;;3.67;1.38;;;21.20;99.90;;;;;;5054542;28;20280;-65
2023/09/19 09:59:50;;;;;;;6.60;1.85;;;21.50;99.90;;;;;;5050642;28;20180;-66
2023/09/19 10:02:40;;;;;;;4.75;1.80;;;21.60;99.90;;;;;;5032025;28;20453;-65
2023/09/19 10:07:53;;;;;;;4.97;1.77;;;21.90;99.90;;;;;;5054525;28;20227;-65
2023/09/19 10:11:18;;;;;;;3.22;1.45;;;22.00;99.90;;;;;;5050750;28;20201;-66
2023/09/19 10:13:33;;;;;;;4.05;1.52;;;22.20;99.90;;;;;;5046665;28;20193;-66
2023/09/19 10:16:10;;;;;;;3.80;1.40;;;22.40;99.90;;;;;;5036407;28;20201;-67
2023/09/19 10:18:38;;;;;;;6.28;1.75;;;22.40;99.90;;;;;;5050556;28;20173;-66
2023/09/19 10:21:06;;;;;;;4.43;1.80;;;22.50;99.90;;;;;;5029551;28;20274;-66
2023/09/19 10:23:34;;;;;;;4.72;1.88;;;22.60;99.90;;;;;;5038538;28;20205;-66
2023/09/19 10:26:05;;;;;;;5.95;2.30;;;22.50;99.90;;;;;;5053577;28;20188;-67
2023/09/19 10:28:32;;;;;;;3.80;1.42;;;22.50;99.90;;;;;;5035303;28;20212;-66
2023/09/19 10:30:59;;;;;;;4.35;1.55;;;22.50;99.90;;;;;;5053889;28;20264;-66
2023/09/19 10:33:25;;;;;;;4.22;1.90;;;22.40;99.90;;;;;;5036832;28;20187;-66
2023/09/19 10:35:52;;;;;;;4.10;1.60;;;22.30;99.90;;;;;;5050792;28;20266;-66
2023/09/19 10:38:20;;;;;;;3.85;1.40;;;22.20;99.90;;;;;;5035954;28;20196;-66
2023/09/19 10:40:50;;;;;;;3.97;1.52;;;22.10;99.90;;;;;;5038315;28;20201;-66
2023/09/19 10:43:20;;;;;;;2.83;1.30;;;22.00;99.90;;;;;;5053786;28;20173;-66
2023/09/19 10:45:49;;;;;;;3.63;1.65;;;21.90;99.90;;;;;;5036900;28;20177;-66
2023/09/19 10:48:19;;;;;;;5.43;1.90;;;22.00;99.90;;;;;;5037166;28;20339;-67
2023/09/19 10:51:00;;;;;;;4.80;1.63;;;22.10;99.90;;;;;;5051518;28;20190;-66
2023/09/19 10:53:28;;;;;;;2.65;1.45;;;22.20;99.90;;;;;;5051327;28;20191;-66
2023/09/19 10:56:09;;;;;;;4.75;1.73;;;22.20;99.90;;;;;;5053022;28;20201;-67
2023/09/19 10:58:38;;;;;;;4.35;1.90;;;22.20;99.90;;;;;;5049845;28;20195;-66
2023/09/19 11:01:12;;;;;;;5.35;1.70;;;22.40;99.90;;;;;;5058520;28;20169;-65
2023/09/19 11:03:43;;;;;;;3.42;1.48;;;22.50;99.90;;;;;;5034618;28;21169;-66
2023/09/19 11:06:16;;;;;;;3.80;1.70;;;22.60;99.90;;;;;;5070001;28;20181;-67
2023/09/19 11:11:42;;;;;;;3.42;1.40;;;22.80;99.90;;;;;;5053300;28;20260;-66
2023/09/19 11:14:14;;;;;;;2.90;1.63;;;22.90;99.90;;;;;;5037067;28;20268;-66
2023/09/19 11:16:40;;;;;;;4.03;1.67;;;23.00;99.90;;;;;;5068460;28;20209;-66
2023/09/19 11:19:07;;;;;;;5.65;1.67;;;23.10;99.90;;;;;;5053556;28;20260;-66
2023/09/19 11:21:35;;;;;;;5.47;1.77;;;23.10;99.90;;;;;;5070376;28;20185;-65
2023/09/19 11:24:10;;;;;;;4.43;1.70;;;23.00;99.90;;;;;;5053204;28;20198;-65
2023/09/19 11:26:53;;;;;;;3.42;1.55;;;22.90;99.90;;;;;;5068684;28;20246;-66
2023/09/19 11:29:33;;;;;;;3.85;1.63;;;22.90;99.90;;;;;;5052354;28;20230;-65
2023/09/19 11:31:59;;;;;;;3.88;1.75;;;22.80;99.90;;;;;;5051650;28;20173;-65
2023/09/19 11:34:41;;;;;;;4.95;1.60;;;22.80;99.90;;;;;;5049989;28;20174;-66
2023/09/19 11:37:11;;;;;;;4.20;1.70;;;22.90;99.90;;;;;;5056831;28;20204;-64
2023/09/19 11:39:38;;;;;;;2.70;1.50;;;22.90;99.90;;;;;;5056425;28;20189;-65
2023/09/19 11:42:43;;;;;;;6.78;1.98;;;22.90;99.90;;;;;;5041321;28;20256;-66
2023/09/19 11:45:34;;;;;;;3.88;1.40;;;22.90;99.90;;;;;;5062631;28;20170;-66
2023/09/19 11:48:07;;;;;;;4.15;1.50;;;22.90;99.90;;;;;;5045321;28;20264;-66
2023/09/19 11:50:34;;;;;;;5.22;1.70;;;22.90;99.90;;;;;;5039340;28;20212;-66
2023/09/19 11:53:01;;;;;;;4.97;1.50;;;23.00;99.90;;;;;;5055685;28;20235;-66
2023/09/19 11:55:32;;;;;;;4.32;1.55;;;23.10;99.90;;;;;;5072246;28;20201;-66
2023/09/19 11:58:01;;;;;;;4.72;1.70;;;23.20;99.90;;;;;;5055535;28;20204;-65
2023/09/19 12:00:27;;;;;;;4.80;1.70;;;23.30;99.90;;;;;;5039325;28;20174;-65
2023/09/19 12:03:01;;;;;;;4.95;1.85;;;23.40;99.90;;;;;;5039588;28;20259;-66
2023/09/19 12:05:36;;;;;;;3.38;1.63;;;23.40;99.90;;;;;;5054894;28;20216;-67
2023/09/19 12:08:08;;;;;;;5.15;1.88;;;23.40;99.90;;;;;;5056034;28;20181;-66
2023/09/19 12:10:52;;;;;;;3.35;1.42;;;23.50;99.90;;;;;;5038790;28;20184;-67
2023/09/19 12:13:24;;;;;;;7.13;1.73;;;23.50;99.90;;;;;;5051188;28;20205;-66
2023/09/19 12:15:49;;;;;;;4.95;1.70;;;23.60;99.90;;;;;;5062358;28;20196;-66
2023/09/19 12:18:31;;;;;;;3.00;1.60;;;23.60;99.90;;;;;;5064691;28;20189;-65
2023/09/19 12:21:00;;;;;;;5.88;1.67;;;23.60;99.90;;;;;;5073136;28;20177;-66
2023/09/19 12:23:25;;;;;;;3.70;1.77;;;23.70;99.90;;;;;;5068304;28;20170;-66
2023/09/19 12:25:53;;;;;;;7.20;3.13;;;23.70;99.90;;;;;;5058152;28;20203;-65
2023/09/19 12:28:22;;;;;;;3.42;1.73;;;23.70;99.90;;;;;;5054781;28;20242;-66
2023/09/19 12:30:48;;;;;;;4.60;1.77;;;23.70;99.90;;;;;;5060351;28;20205;-66
2023/09/19 12:33:19;;;;;;;4.80;1.80;;;23.70;99.90;;;;;;5058200;28;20177;-66
2023/09/19 12:35:47;;;;;;;3.30;1.52;;;23.70;99.90;;;;;;5057784;28;20242;-65
2023/09/19 12:38:28;;;;;;;4.20;1.58;;;23.70;99.90;;;;;;5039075;28;20209;-66
2023/09/19 12:40:56;;;;;;;4.07;1.60;;;23.80;99.90;;;;;;5038545;28;20233;-65
2023/09/19 12:43:25;;;;;;;4.55;1.90;;;23.80;99.90;;;;;;5055685;28;20222;-65
2023/09/19 12:45:53;;;;;;;4.50;1.50;;;23.90;99.90;;;;;;5037212;28;20185;-66
2023/09/19 12:48:20;;;;;;;3.75;1.55;;;23.90;99.90;;;;;;5053482;28;20192;-66
2023/09/19 12:51:05;;;;;;;4.65;1.70;;;23.90;99.90;;;;;;5054331;28;20189;-66
2023/09/19 12:53:40;;;;;;;3.15;1.45;;;24.00;99.90;;;;;;5055116;28;20181;-67
2023/09/19 12:56:09;;;;;;;2.85;1.50;;;24.00;99.90;;;;;;5056540;28;20287;-66
2023/09/19 12:58:53;;;;;;;3.75;1.17;;;24.00;99.90;;;;;;5057912;28;20181;-66
2023/09/19 13:01:24;;;;;;;3.22;1.42;;;24.00;99.90;;;;;;5061453;28;20178;-66
2023/09/19 13:04:19;;;;;;;3.53;1.30;;;24.00;99.90;;;;;;5055248;28;20193;-66
2023/09/19 13:06:49;;;;;;;3.72;1.50;;;24.00;99.90;;;;;;5049066;28;20189;-66
2023/09/19 13:09:20;;;;;;;2.70;1.33;;;23.90;99.90;;;;;;5055226;28;20200;-67
2023/09/19 13:11:47;;;;;;;4.32;1.45;;;24.00;99.90;;;;;;5038344;28;20260;-66
2023/09/19 13:14:33;;;;;;;3.63;1.13;;;24.00;99.90;;;;;;5054178;28;20184;-67